This is the latest recevied weather packets stored in our database for station/object KE7JVX-3. If no packets are shown the sender has not sent any weather packets the latest 1 day(s).
| Time | Temp. | Humidity | Pressure | Rain* | Wind** | Luminosity | Snow |
|---|---|---|---|---|---|---|---|
| 1778042669 | 1.67° C | 57% | 1008.5 hPa | 0 mm | 4.92 m/s, 302° | - | - |
| 1778042238 | 1.67° C | 56% | 1008.6 hPa | 0 mm | 4.47 m/s, 305° | - | - |
| 1778042068 | 1.67° C | 56% | 1008.6 hPa | 0 mm | 4.47 m/s, 305° | - | - |
| 1778041468 | 1.67° C | 57% | 1008.6 hPa | 0 mm | 5.81 m/s, 304° | - | - |
| 1778041049 | 1.67° C | 56% | 1008.5 hPa | 0 mm | 5.36 m/s, 301° | - | - |
| 1778040868 | 1.67° C | 56% | 1008.5 hPa | 0 mm | 5.36 m/s, 301° | - | - |
| 1778040268 | 1.67° C | 56% | 1008.3 hPa | 0 mm | 6.71 m/s, 292° | - | - |
| 1778039871 | 1.67° C | 56% | 1008.2 hPa | 0 mm | 6.26 m/s, 293° | - | - |
| 1778039668 | 1.67° C | 56% | 1008.2 hPa | 0 mm | 6.26 m/s, 293° | - | - |
| 1778039261 | 1.67° C | 56% | 1008.1 hPa | 0 mm | 7.15 m/s, 291° | - | - |
| 1778039068 | 1.67° C | 56% | 1008.1 hPa | 0 mm | 7.15 m/s, 291° | - | - |
| 1778038564 | 1.67° C | 56% | 1008 hPa | 0 mm | 6.71 m/s, 297° | - | - |
| 1778038468 | 1.67° C | 56% | 1008 hPa | 0 mm | 6.71 m/s, 297° | - | - |
| 1778038078 | 1.67° C | 56% | 1007.9 hPa | 0 mm | 6.71 m/s, 297° | - | - |
| 1778037868 | 1.67° C | 56% | 1007.9 hPa | 0 mm | 6.71 m/s, 297° | - | - |
| 1778037268 | 1.67° C | 57% | 1007.9 hPa | 0 mm | 6.71 m/s, 305° | - | - |
| 1778036807 | 1.67° C | 58% | 1007.9 hPa | 0 mm | 6.26 m/s, 305° | - | - |
| 1778036668 | 1.67° C | 58% | 1007.9 hPa | 0 mm | 6.26 m/s, 305° | - | - |
| 1778036068 | 1.67° C | 58% | 1007.7 hPa | 0 mm | 6.26 m/s, 301° | - | - |
| 1778035471 | 1.67° C | 58% | 1007.4 hPa | 0 mm | 7.6 m/s, 288° | - | - |
| 1778035021 | 1.67° C | 58% | 1007.2 hPa | 0 mm | 9.39 m/s, 287° | - | - |
| 1778034868 | 1.67° C | 58% | 1007.2 hPa | 0 mm | 9.39 m/s, 287° | - | - |
| 1778033967 | 2.22° C | 59% | 1007 hPa | 0 mm | 8.05 m/s, 279° | - | - |
| 1778033367 | 2.22° C | 60% | 1006.9 hPa | 0 mm | 8.94 m/s, 282° | - | - |
| 1778032901 | 2.22° C | 59% | 1007 hPa | 0 mm | 8.49 m/s, 277° | - | - |
* Rain latest hour (hover to see other rain measurements)
** Current wind speed in m/s (hover to see current wind gust speed)